sensor_id;sensor_type;location;lat;lon;timestamp;temperature;humidity
55004;DHT22;40900;52.710;6.438;2022-07-29T00:00:46;16.50;99.90
55004;DHT22;40900;52.710;6.438;2022-07-29T00:03:12;16.50;99.90
55004;DHT22;40900;52.710;6.438;2022-07-29T00:05:39;16.50;99.90
55004;DHT22;40900;52.710;6.438;2022-07-29T00:08:05;16.40;99.90
55004;DHT22;40900;52.710;6.438;2022-07-29T00:10:31;16.40;99.90
55004;DHT22;40900;52.710;6.438;2022-07-29T00:12:57;16.50;99.90
55004;DHT22;40900;52.710;6.438;2022-07-29T00:15:22;16.40;99.90
55004;DHT22;40900;52.710;6.438;2022-07-29T00:17:48;16.40;99.90
55004;DHT22;40900;52.710;6.438;2022-07-29T00:20:14;16.40;99.90
55004;DHT22;40900;52.710;6.438;2022-07-29T00:22:39;16.40;99.90
55004;DHT22;40900;52.710;6.438;2022-07-29T00:25:06;16.40;99.90
55004;DHT22;40900;52.710;6.438;2022-07-29T00:27:33;16.40;99.90
55004;DHT22;40900;52.710;6.438;2022-07-29T00:29:59;16.30;99.90
55004;DHT22;40900;52.710;6.438;2022-07-29T00:32:25;16.30;99.90
55004;DHT22;40900;52.710;6.438;2022-07-29T00:34:51;16.30;99.90
55004;DHT22;40900;52.710;6.438;2022-07-29T00:37:35;16.30;99.90
55004;DHT22;40900;52.710;6.438;2022-07-29T00:40:01;16.30;99.90
55004;DHT22;40900;52.710;6.438;2022-07-29T00:42:26;16.30;99.90
55004;DHT22;40900;52.710;6.438;2022-07-29T00:44:52;16.30;99.90
55004;DHT22;40900;52.710;6.438;2022-07-29T00:47:18;16.30;99.90
55004;DHT22;40900;52.710;6.438;2022-07-29T00:49:44;16.30;99.90
55004;DHT22;40900;52.710;6.438;2022-07-29T00:52:11;16.20;99.90
55004;DHT22;40900;52.710;6.438;2022-07-29T00:54:38;16.20;99.90
55004;DHT22;40900;52.710;6.438;2022-07-29T00:57:06;16.20;99.90
55004;DHT22;40900;52.710;6.438;2022-07-29T00:59:32;16.20;99.90
55004;DHT22;40900;52.710;6.438;2022-07-29T01:01:58;16.20;99.90
55004;DHT22;40900;52.710;6.438;2022-07-29T01:04:24;16.20;99.90
55004;DHT22;40900;52.710;6.438;2022-07-29T01:06:50;16.20;99.90
55004;DHT22;40900;52.710;6.438;2022-07-29T01:09:18;16.10;99.90
55004;DHT22;40900;52.710;6.438;2022-07-29T01:11:46;16.10;99.90
55004;DHT22;40900;52.710;6.438;2022-07-29T01:14:13;16.10;99.90
55004;DHT22;40900;52.710;6.438;2022-07-29T01:16:48;16.10;99.90
55004;DHT22;40900;52.710;6.438;2022-07-29T01:21:59;16.10;99.90
55004;DHT22;40900;52.710;6.438;2022-07-29T01:25:31;16.00;99.90
55004;DHT22;40900;52.710;6.438;2022-07-29T01:30:24;16.00;99.90
55004;DHT22;40900;52.710;6.438;2022-07-29T01:32:56;16.00;99.90
55004;DHT22;40900;52.710;6.438;2022-07-29T01:35:27;16.00;99.90
55004;DHT22;40900;52.710;6.438;2022-07-29T01:38:08;16.00;99.90
55004;DHT22;40900;52.710;6.438;2022-07-29T01:43:20;16.00;99.90
55004;DHT22;40900;52.710;6.438;2022-07-29T01:46:01;15.90;99.90
55004;DHT22;40900;52.710;6.438;2022-07-29T01:48:38;15.90;99.90
55004;DHT22;40900;52.710;6.438;2022-07-29T01:51:16;15.90;99.90
55004;DHT22;40900;52.710;6.438;2022-07-29T01:53:54;15.90;99.90
55004;DHT22;40900;52.710;6.438;2022-07-29T01:56:23;15.90;99.90
55004;DHT22;40900;52.710;6.438;2022-07-29T01:58:51;15.90;99.90
55004;DHT22;40900;52.710;6.438;2022-07-29T02:01:19;15.80;99.90
55004;DHT22;40900;52.710;6.438;2022-07-29T02:03:46;15.80;99.90
55004;DHT22;40900;52.710;6.438;2022-07-29T02:06:16;15.80;99.90
55004;DHT22;40900;52.710;6.438;2022-07-29T02:08:43;15.80;99.90
55004;DHT22;40900;52.710;6.438;2022-07-29T02:11:10;15.80;99.90
55004;DHT22;40900;52.710;6.438;2022-07-29T02:13:37;15.80;99.90
55004;DHT22;40900;52.710;6.438;2022-07-29T02:16:06;15.80;99.90
55004;DHT22;40900;52.710;6.438;2022-07-29T02:18:33;15.80;99.90
55004;DHT22;40900;52.710;6.438;2022-07-29T02:21:01;15.80;99.90
55004;DHT22;40900;52.710;6.438;2022-07-29T02:23:30;15.70;99.90
55004;DHT22;40900;52.710;6.438;2022-07-29T02:25:59;15.70;99.90
55004;DHT22;40900;52.710;6.438;2022-07-29T02:28:29;15.70;99.90
55004;DHT22;40900;52.710;6.438;2022-07-29T02:30:59;15.70;99.90
55004;DHT22;40900;52.710;6.438;2022-07-29T02:33:26;15.70;99.90
55004;DHT22;40900;52.710;6.438;2022-07-29T02:35:54;15.70;99.90
55004;DHT22;40900;52.710;6.438;2022-07-29T02:38:21;15.80;99.90
55004;DHT22;40900;52.710;6.438;2022-07-29T02:41:11;15.70;99.90
55004;DHT22;40900;52.710;6.438;2022-07-29T02:43:39;15.70;99.90
55004;DHT22;40900;52.710;6.438;2022-07-29T02:46:09;15.70;99.90
55004;DHT22;40900;52.710;6.438;2022-07-29T02:48:51;15.60;99.90
55004;DHT22;40900;52.710;6.438;2022-07-29T02:51:34;15.60;99.90
55004;DHT22;40900;52.710;6.438;2022-07-29T02:54:07;15.70;99.90
55004;DHT22;40900;52.710;6.438;2022-07-29T02:56:34;15.60;99.90
55004;DHT22;40900;52.710;6.438;2022-07-29T02:59:04;15.70;99.90
55004;DHT22;40900;52.710;6.438;2022-07-29T03:01:32;15.60;99.90
55004;DHT22;40900;52.710;6.438;2022-07-29T03:04:03;15.60;99.90
55004;DHT22;40900;52.710;6.438;2022-07-29T03:06:30;15.60;99.90
55004;DHT22;40900;52.710;6.438;2022-07-29T03:08:59;15.60;99.90
55004;DHT22;40900;52.710;6.438;2022-07-29T03:11:25;15.60;99.90
55004;DHT22;40900;52.710;6.438;2022-07-29T03:13:52;15.60;99.90
55004;DHT22;40900;52.710;6.438;2022-07-29T03:16:19;15.50;99.90
55004;DHT22;40900;52.710;6.438;2022-07-29T03:18:47;15.50;99.90
55004;DHT22;40900;52.710;6.438;2022-07-29T03:21:13;15.50;99.90
55004;DHT22;40900;52.710;6.438;2022-07-29T03:23:43;15.50;99.90
55004;DHT22;40900;52.710;6.438;2022-07-29T03:26:11;15.50;99.90
55004;DHT22;40900;52.710;6.438;2022-07-29T03:28:36;15.50;99.90
55004;DHT22;40900;52.710;6.438;2022-07-29T03:31:02;15.50;99.90
55004;DHT22;40900;52.710;6.438;2022-07-29T03:33:28;15.50;99.90
55004;DHT22;40900;52.710;6.438;2022-07-29T03:35:56;15.50;99.90
55004;DHT22;40900;52.710;6.438;2022-07-29T03:38:23;15.40;99.90
55004;DHT22;40900;52.710;6.438;2022-07-29T03:40:54;15.40;99.90
55004;DHT22;40900;52.710;6.438;2022-07-29T03:43:20;15.40;99.90
55004;DHT22;40900;52.710;6.438;2022-07-29T03:45:51;15.30;99.90
55004;DHT22;40900;52.710;6.438;2022-07-29T03:48:20;15.30;99.90
55004;DHT22;40900;52.710;6.438;2022-07-29T03:50:46;15.30;99.90
55004;DHT22;40900;52.710;6.438;2022-07-29T03:53:12;15.30;99.90
55004;DHT22;40900;52.710;6.438;2022-07-29T03:55:45;15.30;99.90
55004;DHT22;40900;52.710;6.438;2022-07-29T03:58:12;15.40;99.90
55004;DHT22;40900;52.710;6.438;2022-07-29T04:00:38;15.30;99.90
55004;DHT22;40900;52.710;6.438;2022-07-29T04:03:05;15.30;99.90
55004;DHT22;40900;52.710;6.438;2022-07-29T04:05:31;15.30;99.90
55004;DHT22;40900;52.710;6.438;2022-07-29T04:07:57;15.30;99.90
55004;DHT22;40900;52.710;6.438;2022-07-29T04:10:23;15.40;99.90
55004;DHT22;40900;52.710;6.438;2022-07-29T04:12:49;15.40;99.90
55004;DHT22;40900;52.710;6.438;2022-07-29T04:15:15;15.30;99.90
55004;DHT22;40900;52.710;6.438;2022-07-29T04:17:41;15.30;99.90
55004;DHT22;40900;52.710;6.438;2022-07-29T04:20:07;15.30;99.90
55004;DHT22;40900;52.710;6.438;2022-07-29T04:22:33;15.30;99.90
55004;DHT22;40900;52.710;6.438;2022-07-29T04:24:58;15.30;99.90
55004;DHT22;40900;52.710;6.438;2022-07-29T04:27:25;15.20;99.90
55004;DHT22;40900;52.710;6.438;2022-07-29T04:29:51;15.20;99.90
55004;DHT22;40900;52.710;6.438;2022-07-29T04:32:16;15.20;99.90
55004;DHT22;40900;52.710;6.438;2022-07-29T04:34:42;15.20;99.90
55004;DHT22;40900;52.710;6.438;2022-07-29T04:37:08;15.20;99.90
55004;DHT22;40900;52.710;6.438;2022-07-29T04:39:33;15.20;99.90
55004;DHT22;40900;52.710;6.438;2022-07-29T04:41:59;15.20;99.90
55004;DHT22;40900;52.710;6.438;2022-07-29T04:44:25;15.20;99.90
55004;DHT22;40900;52.710;6.438;2022-07-29T04:46:50;15.20;99.90
55004;DHT22;40900;52.710;6.438;2022-07-29T04:49:16;15.20;99.90
55004;DHT22;40900;52.710;6.438;2022-07-29T04:51:42;15.20;99.90
55004;DHT22;40900;52.710;6.438;2022-07-29T04:54:07;15.20;99.90
55004;DHT22;40900;52.710;6.438;2022-07-29T04:56:33;15.20;99.90
55004;DHT22;40900;52.710;6.438;2022-07-29T04:58:59;15.20;99.90
55004;DHT22;40900;52.710;6.438;2022-07-29T05:01:24;15.20;99.90
55004;DHT22;40900;52.710;6.438;2022-07-29T05:03:50;15.30;99.90
55004;DHT22;40900;52.710;6.438;2022-07-29T05:06:16;15.30;99.90
55004;DHT22;40900;52.710;6.438;2022-07-29T05:08:41;15.30;99.90
55004;DHT22;40900;52.710;6.438;2022-07-29T05:11:07;15.30;99.90
55004;DHT22;40900;52.710;6.438;2022-07-29T05:13:33;15.30;99.90
55004;DHT22;40900;52.710;6.438;2022-07-29T05:15:58;15.30;99.90
55004;DHT22;40900;52.710;6.438;2022-07-29T05:18:25;15.30;99.90
55004;DHT22;40900;52.710;6.438;2022-07-29T05:20:51;15.40;99.90
55004;DHT22;40900;52.710;6.438;2022-07-29T05:23:17;15.40;99.90
55004;DHT22;40900;52.710;6.438;2022-07-29T05:25:43;15.50;99.90
55004;DHT22;40900;52.710;6.438;2022-07-29T05:28:09;15.50;99.90
55004;DHT22;40900;52.710;6.438;2022-07-29T05:30:34;15.50;99.90
55004;DHT22;40900;52.710;6.438;2022-07-29T05:33:00;15.50;99.90
55004;DHT22;40900;52.710;6.438;2022-07-29T05:35:26;15.60;99.90
55004;DHT22;40900;52.710;6.438;2022-07-29T05:37:52;15.60;99.90
55004;DHT22;40900;52.710;6.438;2022-07-29T05:40:17;15.70;99.90
55004;DHT22;40900;52.710;6.438;2022-07-29T05:42:43;15.70;99.90
55004;DHT22;40900;52.710;6.438;2022-07-29T05:45:09;15.70;99.90
55004;DHT22;40900;52.710;6.438;2022-07-29T05:47:35;15.80;99.90
55004;DHT22;40900;52.710;6.438;2022-07-29T05:50:01;15.80;99.90
55004;DHT22;40900;52.710;6.438;2022-07-29T05:52:26;15.90;99.90
55004;DHT22;40900;52.710;6.438;2022-07-29T05:54:52;15.90;99.90
55004;DHT22;40900;52.710;6.438;2022-07-29T05:57:23;15.90;99.90
55004;DHT22;40900;52.710;6.438;2022-07-29T05:59:49;16.00;99.90
55004;DHT22;40900;52.710;6.438;2022-07-29T06:02:15;16.00;99.90
55004;DHT22;40900;52.710;6.438;2022-07-29T06:04:42;16.10;99.90
55004;DHT22;40900;52.710;6.438;2022-07-29T06:07:07;16.10;99.90
55004;DHT22;40900;52.710;6.438;2022-07-29T06:09:34;16.20;99.90
55004;DHT22;40900;52.710;6.438;2022-07-29T06:12:00;16.30;99.90
55004;DHT22;40900;52.710;6.438;2022-07-29T06:14:25;16.30;99.90
55004;DHT22;40900;52.710;6.438;2022-07-29T06:16:52;16.20;99.90
55004;DHT22;40900;52.710;6.438;2022-07-29T06:19:18;16.20;99.90
55004;DHT22;40900;52.710;6.438;2022-07-29T06:21:45;16.30;99.90
55004;DHT22;40900;52.710;6.438;2022-07-29T06:24:11;16.20;99.90
55004;DHT22;40900;52.710;6.438;2022-07-29T06:26:38;16.20;99.90
55004;DHT22;40900;52.710;6.438;2022-07-29T06:29:05;16.30;99.90
55004;DHT22;40900;52.710;6.438;2022-07-29T06:31:31;16.30;99.90
55004;DHT22;40900;52.710;6.438;2022-07-29T06:33:56;16.30;99.90
55004;DHT22;40900;52.710;6.438;2022-07-29T06:36:22;16.30;99.90
55004;DHT22;40900;52.710;6.438;2022-07-29T06:38:48;16.30;99.90
55004;DHT22;40900;52.710;6.438;2022-07-29T06:41:13;16.30;99.90
55004;DHT22;40900;52.710;6.438;2022-07-29T06:43:42;16.30;99.90
55004;DHT22;40900;52.710;6.438;2022-07-29T06:46:11;16.30;99.90
55004;DHT22;40900;52.710;6.438;2022-07-29T06:48:38;16.30;99.90
55004;DHT22;40900;52.710;6.438;2022-07-29T06:51:05;16.30;99.90
55004;DHT22;40900;52.710;6.438;2022-07-29T06:53:32;16.30;99.90
55004;DHT22;40900;52.710;6.438;2022-07-29T06:55:59;16.40;99.90
55004;DHT22;40900;52.710;6.438;2022-07-29T06:58:28;16.40;99.90
55004;DHT22;40900;52.710;6.438;2022-07-29T07:00:55;16.40;99.90
55004;DHT22;40900;52.710;6.438;2022-07-29T07:03:21;16.40;99.90
55004;DHT22;40900;52.710;6.438;2022-07-29T07:05:48;16.40;99.90
55004;DHT22;40900;52.710;6.438;2022-07-29T07:08:14;16.50;99.90
55004;DHT22;40900;52.710;6.438;2022-07-29T07:10:41;16.50;99.90
55004;DHT22;40900;52.710;6.438;2022-07-29T07:13:07;16.50;99.90
55004;DHT22;40900;52.710;6.438;2022-07-29T07:15:33;16.70;99.90
55004;DHT22;40900;52.710;6.438;2022-07-29T07:18:00;16.70;99.90
55004;DHT22;40900;52.710;6.438;2022-07-29T07:20:26;16.80;99.90
55004;DHT22;40900;52.710;6.438;2022-07-29T07:22:52;16.80;99.90
55004;DHT22;40900;52.710;6.438;2022-07-29T07:25:18;16.90;99.90
55004;DHT22;40900;52.710;6.438;2022-07-29T07:27:47;16.90;99.90
55004;DHT22;40900;52.710;6.438;2022-07-29T07:30:13;16.90;99.90
55004;DHT22;40900;52.710;6.438;2022-07-29T07:32:38;16.90;99.90
55004;DHT22;40900;52.710;6.438;2022-07-29T07:35:06;16.90;99.90
55004;DHT22;40900;52.710;6.438;2022-07-29T07:37:33;16.90;99.90
55004;DHT22;40900;52.710;6.438;2022-07-29T07:39:59;17.00;99.90
55004;DHT22;40900;52.710;6.438;2022-07-29T07:42:25;16.90;99.90
55004;DHT22;40900;52.710;6.438;2022-07-29T07:44:51;16.90;99.90
55004;DHT22;40900;52.710;6.438;2022-07-29T07:47:18;17.00;99.90
55004;DHT22;40900;52.710;6.438;2022-07-29T07:49:49;17.00;99.90
55004;DHT22;40900;52.710;6.438;2022-07-29T07:52:17;17.00;99.90
55004;DHT22;40900;52.710;6.438;2022-07-29T07:54:44;17.10;99.90
55004;DHT22;40900;52.710;6.438;2022-07-29T07:57:10;17.10;99.90
55004;DHT22;40900;52.710;6.438;2022-07-29T07:59:36;17.10;99.90
55004;DHT22;40900;52.710;6.438;2022-07-29T08:02:03;17.20;99.90
55004;DHT22;40900;52.710;6.438;2022-07-29T08:04:29;17.20;99.90
55004;DHT22;40900;52.710;6.438;2022-07-29T08:06:55;17.20;99.90
55004;DHT22;40900;52.710;6.438;2022-07-29T08:09:22;17.30;99.90
55004;DHT22;40900;52.710;6.438;2022-07-29T08:11:48;17.30;99.90
55004;DHT22;40900;52.710;6.438;2022-07-29T08:14:14;17.30;99.90
55004;DHT22;40900;52.710;6.438;2022-07-29T08:16:40;17.30;99.90
55004;DHT22;40900;52.710;6.438;2022-07-29T08:19:06;17.30;99.90
55004;DHT22;40900;52.710;6.438;2022-07-29T08:21:32;17.30;99.90
55004;DHT22;40900;52.710;6.438;2022-07-29T08:23:58;17.20;99.90
55004;DHT22;40900;52.710;6.438;2022-07-29T08:26:43;17.10;99.90
55004;DHT22;40900;52.710;6.438;2022-07-29T08:29:09;17.20;99.90
55004;DHT22;40900;52.710;6.438;2022-07-29T08:31:36;17.20;99.90
55004;DHT22;40900;52.710;6.438;2022-07-29T08:34:03;17.20;99.90
55004;DHT22;40900;52.710;6.438;2022-07-29T08:36:29;17.20;99.90
55004;DHT22;40900;52.710;6.438;2022-07-29T08:38:55;17.30;99.90
55004;DHT22;40900;52.710;6.438;2022-07-29T08:41:21;17.30;99.90
55004;DHT22;40900;52.710;6.438;2022-07-29T08:43:48;17.40;99.90
55004;DHT22;40900;52.710;6.438;2022-07-29T08:46:14;17.40;99.90
55004;DHT22;40900;52.710;6.438;2022-07-29T08:48:41;17.40;99.90
55004;DHT22;40900;52.710;6.438;2022-07-29T08:51:07;17.50;99.90
55004;DHT22;40900;52.710;6.438;2022-07-29T08:53:33;17.60;99.90
55004;DHT22;40900;52.710;6.438;2022-07-29T08:55:59;17.60;99.90
55004;DHT22;40900;52.710;6.438;2022-07-29T08:58:31;17.60;99.90
55004;DHT22;40900;52.710;6.438;2022-07-29T09:00:57;17.80;99.90
55004;DHT22;40900;52.710;6.438;2022-07-29T09:03:29;17.90;99.90
55004;DHT22;40900;52.710;6.438;2022-07-29T09:05:55;18.00;99.90
55004;DHT22;40900;52.710;6.438;2022-07-29T09:08:21;18.10;99.90
55004;DHT22;40900;52.710;6.438;2022-07-29T09:10:46;18.20;99.90
55004;DHT22;40900;52.710;6.438;2022-07-29T09:13:12;18.20;99.90
55004;DHT22;40900;52.710;6.438;2022-07-29T09:15:38;18.30;99.90
55004;DHT22;40900;52.710;6.438;2022-07-29T09:18:04;18.20;99.90
55004;DHT22;40900;52.710;6.438;2022-07-29T09:20:29;18.20;99.90
55004;DHT22;40900;52.710;6.438;2022-07-29T09:23:15;18.30;99.90
55004;DHT22;40900;52.710;6.438;2022-07-29T09:25:41;18.20;99.90
55004;DHT22;40900;52.710;6.438;2022-07-29T09:28:08;18.20;99.90
55004;DHT22;40900;52.710;6.438;2022-07-29T09:30:35;18.30;99.90
55004;DHT22;40900;52.710;6.438;2022-07-29T09:33:03;18.30;99.90
55004;DHT22;40900;52.710;6.438;2022-07-29T09:35:30;18.30;99.90
55004;DHT22;40900;52.710;6.438;2022-07-29T09:37:56;18.40;99.90
55004;DHT22;40900;52.710;6.438;2022-07-29T09:40:27;18.40;99.90
55004;DHT22;40900;52.710;6.438;2022-07-29T09:42:53;18.40;99.90
55004;DHT22;40900;52.710;6.438;2022-07-29T09:45:29;18.40;99.90
55004;DHT22;40900;52.710;6.438;2022-07-29T09:47:55;18.50;99.90
55004;DHT22;40900;52.710;6.438;2022-07-29T09:50:23;18.40;99.90
55004;DHT22;40900;52.710;6.438;2022-07-29T09:52:59;18.50;99.90
55004;DHT22;40900;52.710;6.438;2022-07-29T09:55:25;18.60;99.90
55004;DHT22;40900;52.710;6.438;2022-07-29T09:57:51;18.70;99.90
55004;DHT22;40900;52.710;6.438;2022-07-29T10:00:19;18.70;99.90
55004;DHT22;40900;52.710;6.438;2022-07-29T10:02:46;18.80;99.90
55004;DHT22;40900;52.710;6.438;2022-07-29T10:05:23;19.00;99.90
55004;DHT22;40900;52.710;6.438;2022-07-29T10:07:52;19.00;99.90
55004;DHT22;40900;52.710;6.438;2022-07-29T10:12:49;19.30;99.90
55004;DHT22;40900;52.710;6.438;2022-07-29T10:15:15;19.40;99.90
55004;DHT22;40900;52.710;6.438;2022-07-29T10:17:42;19.50;99.90
55004;DHT22;40900;52.710;6.438;2022-07-29T10:20:08;19.70;99.90
55004;DHT22;40900;52.710;6.438;2022-07-29T10:22:34;19.80;99.90
55004;DHT22;40900;52.710;6.438;2022-07-29T10:25:00;19.90;99.90
55004;DHT22;40900;52.710;6.438;2022-07-29T10:27:26;20.10;99.90
55004;DHT22;40900;52.710;6.438;2022-07-29T10:29:54;20.20;99.90
55004;DHT22;40900;52.710;6.438;2022-07-29T10:35:19;20.50;99.90
55004;DHT22;40900;52.710;6.438;2022-07-29T10:38:29;20.70;99.90
55004;DHT22;40900;52.710;6.438;2022-07-29T10:41:23;20.90;99.90
55004;DHT22;40900;52.710;6.438;2022-07-29T10:46:20;21.20;99.90
55004;DHT22;40900;52.710;6.438;2022-07-29T10:49:13;21.30;99.90
55004;DHT22;40900;52.710;6.438;2022-07-29T10:52:08;21.50;99.90
55004;DHT22;40900;52.710;6.438;2022-07-29T11:07:32;23.10;99.90
55004;DHT22;40900;52.710;6.438;2022-07-29T11:10:29;22.90;99.80
55004;DHT22;40900;52.710;6.438;2022-07-29T11:12:54;22.80;99.60
55004;DHT22;40900;52.710;6.438;2022-07-29T11:15:21;22.70;99.90
55004;DHT22;40900;52.710;6.438;2022-07-29T11:23:16;22.50;99.90
55004;DHT22;40900;52.710;6.438;2022-07-29T11:25:43;22.40;99.50
55004;DHT22;40900;52.710;6.438;2022-07-29T11:28:13;22.30;99.40
55004;DHT22;40900;52.710;6.438;2022-07-29T11:30:52;22.30;99.50
55004;DHT22;40900;52.710;6.438;2022-07-29T11:33:31;22.30;99.40
55004;DHT22;40900;52.710;6.438;2022-07-29T11:38:33;22.40;99.90
55004;DHT22;40900;52.710;6.438;2022-07-29T11:43:56;22.60;99.50
55004;DHT22;40900;52.710;6.438;2022-07-29T11:46:44;22.70;99.70
55004;DHT22;40900;52.710;6.438;2022-07-29T11:49:12;22.70;99.50
55004;DHT22;40900;52.710;6.438;2022-07-29T11:51:38;22.80;99.50
55004;DHT22;40900;52.710;6.438;2022-07-29T11:54:05;22.60;99.20
55004;DHT22;40900;52.710;6.438;2022-07-29T11:56:31;22.80;99.00
55004;DHT22;40900;52.710;6.438;2022-07-29T11:59:07;22.80;99.30
55004;DHT22;40900;52.710;6.438;2022-07-29T12:01:35;22.90;99.20
55004;DHT22;40900;52.710;6.438;2022-07-29T12:04:07;23.10;99.10
55004;DHT22;40900;52.710;6.438;2022-07-29T12:06:36;23.10;98.80
55004;DHT22;40900;52.710;6.438;2022-07-29T12:09:08;23.20;99.00
55004;DHT22;40900;52.710;6.438;2022-07-29T12:11:34;23.30;98.90
55004;DHT22;40900;52.710;6.438;2022-07-29T12:14:00;23.20;98.50
55004;DHT22;40900;52.710;6.438;2022-07-29T12:16:35;23.20;98.80
55004;DHT22;40900;52.710;6.438;2022-07-29T12:19:02;23.20;98.60
55004;DHT22;40900;52.710;6.438;2022-07-29T12:21:48;23.20;98.90
55004;DHT22;40900;52.710;6.438;2022-07-29T12:24:14;23.30;98.90
55004;DHT22;40900;52.710;6.438;2022-07-29T12:26:57;23.40;98.90
55004;DHT22;40900;52.710;6.438;2022-07-29T12:29:24;23.50;98.70
55004;DHT22;40900;52.710;6.438;2022-07-29T12:31:54;23.50;98.60
55004;DHT22;40900;52.710;6.438;2022-07-29T12:34:23;23.40;98.80
55004;DHT22;40900;52.710;6.438;2022-07-29T12:36:50;23.40;98.70
55004;DHT22;40900;52.710;6.438;2022-07-29T12:39:16;23.30;98.50
55004;DHT22;40900;52.710;6.438;2022-07-29T12:41:43;23.40;98.70
55004;DHT22;40900;52.710;6.438;2022-07-29T12:44:10;23.50;98.70
55004;DHT22;40900;52.710;6.438;2022-07-29T12:46:35;23.40;98.70
55004;DHT22;40900;52.710;6.438;2022-07-29T12:49:01;23.60;98.80
55004;DHT22;40900;52.710;6.438;2022-07-29T12:51:32;23.60;98.40
55004;DHT22;40900;52.710;6.438;2022-07-29T12:54:09;23.70;98.20
55004;DHT22;40900;52.710;6.438;2022-07-29T12:56:39;23.70;99.20
55004;DHT22;40900;52.710;6.438;2022-07-29T12:59:19;23.80;98.30
55004;DHT22;40900;52.710;6.438;2022-07-29T13:01:50;23.90;97.80
55004;DHT22;40900;52.710;6.438;2022-07-29T13:04:29;23.90;97.50
55004;DHT22;40900;52.710;6.438;2022-07-29T13:09:37;24.00;97.80
55004;DHT22;40900;52.710;6.438;2022-07-29T13:12:10;24.10;97.60
55004;DHT22;40900;52.710;6.438;2022-07-29T13:17:14;24.40;96.90
55004;DHT22;40900;52.710;6.438;2022-07-29T13:19:52;24.30;96.30
55004;DHT22;40900;52.710;6.438;2022-07-29T13:22:22;24.40;96.20
55004;DHT22;40900;52.710;6.438;2022-07-29T13:27:19;24.40;96.80
55004;DHT22;40900;52.710;6.438;2022-07-29T13:29:45;24.50;96.80
55004;DHT22;40900;52.710;6.438;2022-07-29T13:32:11;24.40;96.70
55004;DHT22;40900;52.710;6.438;2022-07-29T13:34:37;24.40;96.70
55004;DHT22;40900;52.710;6.438;2022-07-29T13:37:03;24.50;96.50
55004;DHT22;40900;52.710;6.438;2022-07-29T13:39:28;24.60;96.30
55004;DHT22;40900;52.710;6.438;2022-07-29T13:41:54;24.80;96.20
55004;DHT22;40900;52.710;6.438;2022-07-29T13:44:20;24.90;95.70
55004;DHT22;40900;52.710;6.438;2022-07-29T13:46:45;24.90;95.20
55004;DHT22;40900;52.710;6.438;2022-07-29T13:49:11;25.10;95.00
55004;DHT22;40900;52.710;6.438;2022-07-29T13:51:37;25.30;94.50
55004;DHT22;40900;52.710;6.438;2022-07-29T13:54:03;25.30;94.30
55004;DHT22;40900;52.710;6.438;2022-07-29T13:56:29;25.30;94.40
55004;DHT22;40900;52.710;6.438;2022-07-29T13:58:55;25.40;94.10
55004;DHT22;40900;52.710;6.438;2022-07-29T14:01:21;25.40;94.00
55004;DHT22;40900;52.710;6.438;2022-07-29T14:03:47;25.40;94.10
55004;DHT22;40900;52.710;6.438;2022-07-29T14:06:12;25.30;93.70
55004;DHT22;40900;52.710;6.438;2022-07-29T14:08:38;25.40;94.00
55004;DHT22;40900;52.710;6.438;2022-07-29T14:11:05;25.50;93.90
55004;DHT22;40900;52.710;6.438;2022-07-29T14:13:31;25.50;93.50
55004;DHT22;40900;52.710;6.438;2022-07-29T14:15:57;25.40;93.00
55004;DHT22;40900;52.710;6.438;2022-07-29T14:18:22;25.20;93.00
55004;DHT22;40900;52.710;6.438;2022-07-29T14:20:48;25.30;93.10
55004;DHT22;40900;52.710;6.438;2022-07-29T14:23:14;25.20;92.90
55004;DHT22;40900;52.710;6.438;2022-07-29T14:25:40;25.30;93.00
55004;DHT22;40900;52.710;6.438;2022-07-29T14:28:06;25.20;92.60
55004;DHT22;40900;52.710;6.438;2022-07-29T14:30:32;25.20;92.30
55004;DHT22;40900;52.710;6.438;2022-07-29T14:32:58;25.20;92.50
55004;DHT22;40900;52.710;6.438;2022-07-29T14:35:24;25.20;92.60
55004;DHT22;40900;52.710;6.438;2022-07-29T14:37:49;25.10;92.80
55004;DHT22;40900;52.710;6.438;2022-07-29T14:40:15;25.00;92.70
55004;DHT22;40900;52.710;6.438;2022-07-29T14:42:40;24.90;92.70
55004;DHT22;40900;52.710;6.438;2022-07-29T14:45:07;25.00;93.00
55004;DHT22;40900;52.710;6.438;2022-07-29T14:47:33;25.00;93.10
55004;DHT22;40900;52.710;6.438;2022-07-29T14:49:59;25.10;93.40
55004;DHT22;40900;52.710;6.438;2022-07-29T14:52:25;25.10;93.00
55004;DHT22;40900;52.710;6.438;2022-07-29T14:54:51;25.00;93.00
55004;DHT22;40900;52.710;6.438;2022-07-29T14:57:16;25.10;93.70
55004;DHT22;40900;52.710;6.438;2022-07-29T14:59:42;25.10;93.50
55004;DHT22;40900;52.710;6.438;2022-07-29T15:02:08;25.20;93.50
55004;DHT22;40900;52.710;6.438;2022-07-29T15:04:34;25.20;93.40
55004;DHT22;40900;52.710;6.438;2022-07-29T15:07:00;25.20;93.40
55004;DHT22;40900;52.710;6.438;2022-07-29T15:09:25;25.10;93.10
55004;DHT22;40900;52.710;6.438;2022-07-29T15:11:51;25.00;93.00
55004;DHT22;40900;52.710;6.438;2022-07-29T15:14:17;25.10;93.00
55004;DHT22;40900;52.710;6.438;2022-07-29T15:16:43;25.20;93.10
55004;DHT22;40900;52.710;6.438;2022-07-29T15:19:09;25.20;93.50
55004;DHT22;40900;52.710;6.438;2022-07-29T15:21:35;25.20;93.70
55004;DHT22;40900;52.710;6.438;2022-07-29T15:24:01;25.20;93.70
55004;DHT22;40900;52.710;6.438;2022-07-29T15:26:26;25.20;93.80
55004;DHT22;40900;52.710;6.438;2022-07-29T15:28:52;25.20;93.50
55004;DHT22;40900;52.710;6.438;2022-07-29T15:31:18;25.30;93.90
55004;DHT22;40900;52.710;6.438;2022-07-29T15:33:46;25.10;93.60
55004;DHT22;40900;52.710;6.438;2022-07-29T15:36:12;25.00;93.70
55004;DHT22;40900;52.710;6.438;2022-07-29T15:38:38;25.00;94.10
55004;DHT22;40900;52.710;6.438;2022-07-29T15:41:06;25.00;93.50
55004;DHT22;40900;52.710;6.438;2022-07-29T15:43:32;25.00;94.10
55004;DHT22;40900;52.710;6.438;2022-07-29T15:46:00;24.90;93.80
55004;DHT22;40900;52.710;6.438;2022-07-29T15:48:45;24.90;93.80
55004;DHT22;40900;52.710;6.438;2022-07-29T15:51:11;24.90;93.80
55004;DHT22;40900;52.710;6.438;2022-07-29T15:53:37;25.00;93.90
55004;DHT22;40900;52.710;6.438;2022-07-29T15:56:03;25.00;93.80
55004;DHT22;40900;52.710;6.438;2022-07-29T15:58:29;25.00;94.00
55004;DHT22;40900;52.710;6.438;2022-07-29T16:00:55;25.00;94.10
55004;DHT22;40900;52.710;6.438;2022-07-29T16:03:20;25.00;93.90
55004;DHT22;40900;52.710;6.438;2022-07-29T16:05:47;25.00;93.80
55004;DHT22;40900;52.710;6.438;2022-07-29T16:08:13;25.00;93.60
55004;DHT22;40900;52.710;6.438;2022-07-29T16:10:39;24.90;93.60
55004;DHT22;40900;52.710;6.438;2022-07-29T16:13:05;24.90;93.90
55004;DHT22;40900;52.710;6.438;2022-07-29T16:15:31;24.90;93.60
55004;DHT22;40900;52.710;6.438;2022-07-29T16:17:57;24.90;93.60
55004;DHT22;40900;52.710;6.438;2022-07-29T16:20:22;24.80;93.90
55004;DHT22;40900;52.710;6.438;2022-07-29T16:22:48;24.80;93.80